sensor_id;sensor_type;location;lat;lon;timestamp;temperature;humidity
22081;DHT22;11207;59.512;18.050;2022-08-01T00:00:09;15.60;99.90
22081;DHT22;11207;59.512;18.050;2022-08-01T00:02:39;15.50;99.90
22081;DHT22;11207;59.512;18.050;2022-08-01T00:05:06;15.50;99.90
22081;DHT22;11207;59.512;18.050;2022-08-01T00:07:35;15.50;99.90
22081;DHT22;11207;59.512;18.050;2022-08-01T00:10:03;15.40;99.90
22081;DHT22;11207;59.512;18.050;2022-08-01T00:12:29;15.40;99.90
22081;DHT22;11207;59.512;18.050;2022-08-01T00:14:54;15.40;99.90
22081;DHT22;11207;59.512;18.050;2022-08-01T00:17:20;15.40;99.90
22081;DHT22;11207;59.512;18.050;2022-08-01T00:19:46;15.30;99.90
22081;DHT22;11207;59.512;18.050;2022-08-01T00:22:11;15.30;99.90
22081;DHT22;11207;59.512;18.050;2022-08-01T00:24:37;15.20;99.90
22081;DHT22;11207;59.512;18.050;2022-08-01T00:27:02;15.20;99.90
22081;DHT22;11207;59.512;18.050;2022-08-01T00:29:28;15.10;99.90
22081;DHT22;11207;59.512;18.050;2022-08-01T00:31:54;15.10;99.90
22081;DHT22;11207;59.512;18.050;2022-08-01T00:34:19;15.10;99.90
22081;DHT22;11207;59.512;18.050;2022-08-01T00:36:45;15.10;99.90
22081;DHT22;11207;59.512;18.050;2022-08-01T00:39:12;15.00;99.90
22081;DHT22;11207;59.512;18.050;2022-08-01T00:41:38;15.10;99.90
22081;DHT22;11207;59.512;18.050;2022-08-01T00:44:04;15.00;99.90
22081;DHT22;11207;59.512;18.050;2022-08-01T00:46:31;15.00;99.90
22081;DHT22;11207;59.512;18.050;2022-08-01T00:48:57;15.00;99.90
22081;DHT22;11207;59.512;18.050;2022-08-01T00:51:23;14.90;99.90
22081;DHT22;11207;59.512;18.050;2022-08-01T00:53:50;14.90;99.90
22081;DHT22;11207;59.512;18.050;2022-08-01T00:56:16;14.80;99.90
22081;DHT22;11207;59.512;18.050;2022-08-01T00:58:42;14.80;99.90
22081;DHT22;11207;59.512;18.050;2022-08-01T01:01:09;14.80;99.90
22081;DHT22;11207;59.512;18.050;2022-08-01T01:03:35;14.80;99.90
22081;DHT22;11207;59.512;18.050;2022-08-01T01:08:32;14.80;99.90
22081;DHT22;11207;59.512;18.050;2022-08-01T01:11:13;14.70;99.90
22081;DHT22;11207;59.512;18.050;2022-08-01T01:13:46;14.80;99.90
22081;DHT22;11207;59.512;18.050;2022-08-01T01:16:15;14.70;99.90
22081;DHT22;11207;59.512;18.050;2022-08-01T01:18:46;14.70;99.90
22081;DHT22;11207;59.512;18.050;2022-08-01T01:26:45;14.60;99.90
22081;DHT22;11207;59.512;18.050;2022-08-01T01:29:28;14.60;99.90
22081;DHT22;11207;59.512;18.050;2022-08-01T01:32:06;14.60;99.90
22081;DHT22;11207;59.512;18.050;2022-08-01T01:34:35;14.70;99.90
22081;DHT22;11207;59.512;18.050;2022-08-01T01:37:04;14.70;99.90
22081;DHT22;11207;59.512;18.050;2022-08-01T01:39:32;14.70;99.90
22081;DHT22;11207;59.512;18.050;2022-08-01T01:42:00;14.70;99.90
22081;DHT22;11207;59.512;18.050;2022-08-01T01:44:27;14.60;99.90
22081;DHT22;11207;59.512;18.050;2022-08-01T01:46:53;14.70;99.90
22081;DHT22;11207;59.512;18.050;2022-08-01T01:49:24;14.60;99.90
22081;DHT22;11207;59.512;18.050;2022-08-01T01:51:54;14.70;99.90
22081;DHT22;11207;59.512;18.050;2022-08-01T01:54:20;14.70;99.90
22081;DHT22;11207;59.512;18.050;2022-08-01T01:56:48;14.60;99.90
22081;DHT22;11207;59.512;18.050;2022-08-01T01:59:24;14.60;99.90
22081;DHT22;11207;59.512;18.050;2022-08-01T02:01:53;14.60;99.90
22081;DHT22;11207;59.512;18.050;2022-08-01T02:04:20;14.60;99.90
22081;DHT22;11207;59.512;18.050;2022-08-01T02:06:49;14.60;99.90
22081;DHT22;11207;59.512;18.050;2022-08-01T02:09:17;14.70;99.90
22081;DHT22;11207;59.512;18.050;2022-08-01T02:11:45;14.70;99.90
22081;DHT22;11207;59.512;18.050;2022-08-01T02:14:13;14.70;99.90
22081;DHT22;11207;59.512;18.050;2022-08-01T02:16:41;14.70;99.90
22081;DHT22;11207;59.512;18.050;2022-08-01T02:19:08;14.70;99.90
22081;DHT22;11207;59.512;18.050;2022-08-01T02:21:48;14.70;99.90
22081;DHT22;11207;59.512;18.050;2022-08-01T02:26:53;14.70;99.90
22081;DHT22;11207;59.512;18.050;2022-08-01T02:29:37;14.70;99.90
22081;DHT22;11207;59.512;18.050;2022-08-01T02:32:06;14.70;99.90
22081;DHT22;11207;59.512;18.050;2022-08-01T02:34:34;14.70;99.90
22081;DHT22;11207;59.512;18.050;2022-08-01T02:37:01;14.80;99.90
22081;DHT22;11207;59.512;18.050;2022-08-01T02:39:29;14.80;99.90
22081;DHT22;11207;59.512;18.050;2022-08-01T02:41:59;14.80;99.90
22081;DHT22;11207;59.512;18.050;2022-08-01T02:44:30;14.80;99.90
22081;DHT22;11207;59.512;18.050;2022-08-01T02:47:03;14.90;99.90
22081;DHT22;11207;59.512;18.050;2022-08-01T02:49:31;14.90;99.90
22081;DHT22;11207;59.512;18.050;2022-08-01T02:51:59;14.90;99.90
22081;DHT22;11207;59.512;18.050;2022-08-01T02:54:27;14.90;99.90
22081;DHT22;11207;59.512;18.050;2022-08-01T02:56:56;15.00;99.90
22081;DHT22;11207;59.512;18.050;2022-08-01T02:59:23;15.00;99.90
22081;DHT22;11207;59.512;18.050;2022-08-01T03:01:53;14.90;99.90
22081;DHT22;11207;59.512;18.050;2022-08-01T03:04:22;15.00;99.90
22081;DHT22;11207;59.512;18.050;2022-08-01T03:06:48;14.90;99.90
22081;DHT22;11207;59.512;18.050;2022-08-01T03:09:15;14.90;99.90
22081;DHT22;11207;59.512;18.050;2022-08-01T03:11:42;15.00;99.90
22081;DHT22;11207;59.512;18.050;2022-08-01T03:14:10;15.00;99.90
22081;DHT22;11207;59.512;18.050;2022-08-01T03:16:38;15.00;99.90
22081;DHT22;11207;59.512;18.050;2022-08-01T03:19:07;15.00;99.90
22081;DHT22;11207;59.512;18.050;2022-08-01T03:21:34;15.10;99.90
22081;DHT22;11207;59.512;18.050;2022-08-01T03:24:01;15.10;99.90
22081;DHT22;11207;59.512;18.050;2022-08-01T03:26:30;15.10;99.90
22081;DHT22;11207;59.512;18.050;2022-08-01T03:28:58;15.10;99.90
22081;DHT22;11207;59.512;18.050;2022-08-01T03:31:27;15.10;99.90
22081;DHT22;11207;59.512;18.050;2022-08-01T03:33:53;15.20;99.90
22081;DHT22;11207;59.512;18.050;2022-08-01T03:36:22;15.20;99.90
22081;DHT22;11207;59.512;18.050;2022-08-01T03:38:50;15.30;99.90
22081;DHT22;11207;59.512;18.050;2022-08-01T03:41:20;15.20;99.90
22081;DHT22;11207;59.512;18.050;2022-08-01T03:43:57;15.20;99.90
22081;DHT22;11207;59.512;18.050;2022-08-01T03:46:32;15.30;99.90
22081;DHT22;11207;59.512;18.050;2022-08-01T03:49:00;15.30;99.90
22081;DHT22;11207;59.512;18.050;2022-08-01T03:51:30;15.40;99.90
22081;DHT22;11207;59.512;18.050;2022-08-01T03:54:00;15.40;99.90
22081;DHT22;11207;59.512;18.050;2022-08-01T03:56:27;15.40;99.90
22081;DHT22;11207;59.512;18.050;2022-08-01T03:58:58;15.50;99.90
22081;DHT22;11207;59.512;18.050;2022-08-01T04:01:25;15.40;99.90
22081;DHT22;11207;59.512;18.050;2022-08-01T04:03:51;15.50;99.90
22081;DHT22;11207;59.512;18.050;2022-08-01T04:06:17;15.50;99.90
22081;DHT22;11207;59.512;18.050;2022-08-01T04:08:42;15.50;99.90
22081;DHT22;11207;59.512;18.050;2022-08-01T04:11:09;15.50;99.90
22081;DHT22;11207;59.512;18.050;2022-08-01T04:13:35;15.50;99.90
22081;DHT22;11207;59.512;18.050;2022-08-01T04:16:01;15.60;99.90
22081;DHT22;11207;59.512;18.050;2022-08-01T04:18:26;15.60;99.90
22081;DHT22;11207;59.512;18.050;2022-08-01T04:20:52;15.70;99.90
22081;DHT22;11207;59.512;18.050;2022-08-01T04:23:20;15.80;99.90
22081;DHT22;11207;59.512;18.050;2022-08-01T04:25:49;15.80;99.90
22081;DHT22;11207;59.512;18.050;2022-08-01T04:28:15;15.80;99.90
22081;DHT22;11207;59.512;18.050;2022-08-01T04:30:44;15.90;99.90
22081;DHT22;11207;59.512;18.050;2022-08-01T04:33:14;15.90;99.90
22081;DHT22;11207;59.512;18.050;2022-08-01T04:35:44;15.90;99.90
22081;DHT22;11207;59.512;18.050;2022-08-01T04:38:13;16.00;99.90
22081;DHT22;11207;59.512;18.050;2022-08-01T04:40:42;16.10;99.90
22081;DHT22;11207;59.512;18.050;2022-08-01T04:43:11;16.20;99.90
22081;DHT22;11207;59.512;18.050;2022-08-01T04:45:38;16.20;99.90
22081;DHT22;11207;59.512;18.050;2022-08-01T04:48:09;16.30;99.90
22081;DHT22;11207;59.512;18.050;2022-08-01T04:50:35;16.40;99.90
22081;DHT22;11207;59.512;18.050;2022-08-01T04:53:02;16.60;99.90
22081;DHT22;11207;59.512;18.050;2022-08-01T04:55:28;16.80;99.90
22081;DHT22;11207;59.512;18.050;2022-08-01T04:57:54;17.00;99.90
22081;DHT22;11207;59.512;18.050;2022-08-01T05:00:20;17.20;99.90
22081;DHT22;11207;59.512;18.050;2022-08-01T05:02:46;17.30;99.90
22081;DHT22;11207;59.512;18.050;2022-08-01T05:05:12;17.30;99.90
22081;DHT22;11207;59.512;18.050;2022-08-01T05:07:38;17.40;99.90
22081;DHT22;11207;59.512;18.050;2022-08-01T05:10:05;17.60;99.90
22081;DHT22;11207;59.512;18.050;2022-08-01T05:12:31;17.80;99.90
22081;DHT22;11207;59.512;18.050;2022-08-01T05:14:59;17.90;99.90
22081;DHT22;11207;59.512;18.050;2022-08-01T05:17:25;18.00;99.90
22081;DHT22;11207;59.512;18.050;2022-08-01T05:19:54;18.00;99.90
22081;DHT22;11207;59.512;18.050;2022-08-01T05:22:20;17.90;99.90
22081;DHT22;11207;59.512;18.050;2022-08-01T05:24:45;18.00;99.90
22081;DHT22;11207;59.512;18.050;2022-08-01T05:27:12;18.00;99.90
22081;DHT22;11207;59.512;18.050;2022-08-01T05:29:38;18.10;99.90
22081;DHT22;11207;59.512;18.050;2022-08-01T05:32:04;18.20;99.90
22081;DHT22;11207;59.512;18.050;2022-08-01T05:34:30;18.30;99.90
22081;DHT22;11207;59.512;18.050;2022-08-01T05:36:56;18.30;99.90
22081;DHT22;11207;59.512;18.050;2022-08-01T05:39:21;18.40;99.90
22081;DHT22;11207;59.512;18.050;2022-08-01T05:41:47;18.50;99.90
22081;DHT22;11207;59.512;18.050;2022-08-01T05:44:13;18.60;99.90
22081;DHT22;11207;59.512;18.050;2022-08-01T05:46:38;18.70;99.90
22081;DHT22;11207;59.512;18.050;2022-08-01T05:49:04;18.70;99.90
22081;DHT22;11207;59.512;18.050;2022-08-01T05:51:30;18.80;99.90
22081;DHT22;11207;59.512;18.050;2022-08-01T05:53:57;18.90;99.90
22081;DHT22;11207;59.512;18.050;2022-08-01T05:56:23;19.10;99.90
22081;DHT22;11207;59.512;18.050;2022-08-01T05:58:51;19.00;99.90
22081;DHT22;11207;59.512;18.050;2022-08-01T06:01:18;19.10;99.90
22081;DHT22;11207;59.512;18.050;2022-08-01T06:03:44;19.20;99.90
22081;DHT22;11207;59.512;18.050;2022-08-01T06:06:10;19.30;99.90
22081;DHT22;11207;59.512;18.050;2022-08-01T06:08:36;19.30;99.90
22081;DHT22;11207;59.512;18.050;2022-08-01T06:11:02;19.40;99.90
22081;DHT22;11207;59.512;18.050;2022-08-01T06:13:28;19.40;99.90
22081;DHT22;11207;59.512;18.050;2022-08-01T06:15:53;19.50;99.90
22081;DHT22;11207;59.512;18.050;2022-08-01T06:18:19;19.50;99.90
22081;DHT22;11207;59.512;18.050;2022-08-01T06:20:45;19.60;99.90
22081;DHT22;11207;59.512;18.050;2022-08-01T06:23:10;19.70;99.90
22081;DHT22;11207;59.512;18.050;2022-08-01T06:25:36;19.80;99.90
22081;DHT22;11207;59.512;18.050;2022-08-01T06:28:02;19.90;99.90
22081;DHT22;11207;59.512;18.050;2022-08-01T06:30:28;20.00;99.90
22081;DHT22;11207;59.512;18.050;2022-08-01T06:32:53;20.10;99.90
22081;DHT22;11207;59.512;18.050;2022-08-01T06:35:21;20.20;99.90
22081;DHT22;11207;59.512;18.050;2022-08-01T06:37:47;20.30;99.90
22081;DHT22;11207;59.512;18.050;2022-08-01T06:40:12;20.40;99.90
22081;DHT22;11207;59.512;18.050;2022-08-01T06:42:38;20.60;99.90
22081;DHT22;11207;59.512;18.050;2022-08-01T06:45:05;20.70;99.90
22081;DHT22;11207;59.512;18.050;2022-08-01T06:47:31;20.80;99.90
22081;DHT22;11207;59.512;18.050;2022-08-01T06:49:57;20.80;99.90
22081;DHT22;11207;59.512;18.050;2022-08-01T06:52:23;20.80;99.90
22081;DHT22;11207;59.512;18.050;2022-08-01T06:54:48;20.70;99.90
22081;DHT22;11207;59.512;18.050;2022-08-01T06:57:14;20.70;99.90
22081;DHT22;11207;59.512;18.050;2022-08-01T06:59:40;20.70;99.90
22081;DHT22;11207;59.512;18.050;2022-08-01T07:02:06;20.80;99.90
22081;DHT22;11207;59.512;18.050;2022-08-01T07:04:33;20.80;99.90
22081;DHT22;11207;59.512;18.050;2022-08-01T07:06:58;20.80;99.90
22081;DHT22;11207;59.512;18.050;2022-08-01T07:09:24;20.80;99.90
22081;DHT22;11207;59.512;18.050;2022-08-01T07:11:50;20.80;99.90
22081;DHT22;11207;59.512;18.050;2022-08-01T07:14:18;20.80;99.90
22081;DHT22;11207;59.512;18.050;2022-08-01T07:16:43;20.90;99.90
22081;DHT22;11207;59.512;18.050;2022-08-01T07:19:09;20.90;99.90
22081;DHT22;11207;59.512;18.050;2022-08-01T07:21:35;20.80;99.90
22081;DHT22;11207;59.512;18.050;2022-08-01T07:24:00;20.90;99.90
22081;DHT22;11207;59.512;18.050;2022-08-01T07:26:26;20.90;99.90
22081;DHT22;11207;59.512;18.050;2022-08-01T07:28:52;21.00;99.90
22081;DHT22;11207;59.512;18.050;2022-08-01T07:31:18;21.10;99.90
22081;DHT22;11207;59.512;18.050;2022-08-01T07:33:44;21.10;99.90
22081;DHT22;11207;59.512;18.050;2022-08-01T07:36:10;21.20;99.90
22081;DHT22;11207;59.512;18.050;2022-08-01T07:38:35;21.20;99.90
22081;DHT22;11207;59.512;18.050;2022-08-01T07:41:01;21.30;99.90
22081;DHT22;11207;59.512;18.050;2022-08-01T07:43:28;21.30;99.90
22081;DHT22;11207;59.512;18.050;2022-08-01T07:45:53;21.50;99.90
22081;DHT22;11207;59.512;18.050;2022-08-01T07:48:19;21.60;99.90
22081;DHT22;11207;59.512;18.050;2022-08-01T07:50:51;21.70;99.90
22081;DHT22;11207;59.512;18.050;2022-08-01T07:53:17;21.80;99.40
22081;DHT22;11207;59.512;18.050;2022-08-01T07:55:43;21.90;99.30
22081;DHT22;11207;59.512;18.050;2022-08-01T07:58:08;22.00;98.30
22081;DHT22;11207;59.512;18.050;2022-08-01T08:00:34;22.10;98.20
22081;DHT22;11207;59.512;18.050;2022-08-01T08:03:00;22.10;97.80
22081;DHT22;11207;59.512;18.050;2022-08-01T08:05:28;22.30;97.30
22081;DHT22;11207;59.512;18.050;2022-08-01T08:07:54;22.50;96.30
22081;DHT22;11207;59.512;18.050;2022-08-01T08:10:20;22.60;95.20
22081;DHT22;11207;59.512;18.050;2022-08-01T08:12:46;22.70;94.30
22081;DHT22;11207;59.512;18.050;2022-08-01T08:15:13;22.80;94.50
22081;DHT22;11207;59.512;18.050;2022-08-01T08:17:39;22.90;94.20
22081;DHT22;11207;59.512;18.050;2022-08-01T08:20:06;23.00;94.50
22081;DHT22;11207;59.512;18.050;2022-08-01T08:22:33;23.10;93.20
22081;DHT22;11207;59.512;18.050;2022-08-01T08:24:59;23.10;92.80
22081;DHT22;11207;59.512;18.050;2022-08-01T08:27:25;23.00;93.20
22081;DHT22;11207;59.512;18.050;2022-08-01T08:29:50;23.10;93.50
22081;DHT22;11207;59.512;18.050;2022-08-01T08:32:16;23.20;93.30
22081;DHT22;11207;59.512;18.050;2022-08-01T08:34:42;23.10;92.80
22081;DHT22;11207;59.512;18.050;2022-08-01T08:37:08;23.20;92.60
22081;DHT22;11207;59.512;18.050;2022-08-01T08:39:33;23.30;92.30
22081;DHT22;11207;59.512;18.050;2022-08-01T08:41:59;23.50;92.40
22081;DHT22;11207;59.512;18.050;2022-08-01T08:44:25;23.70;91.50
22081;DHT22;11207;59.512;18.050;2022-08-01T08:46:51;23.80;91.50
22081;DHT22;11207;59.512;18.050;2022-08-01T08:49:20;24.10;91.00
22081;DHT22;11207;59.512;18.050;2022-08-01T08:51:48;24.10;90.30
22081;DHT22;11207;59.512;18.050;2022-08-01T08:54:16;24.10;90.60
22081;DHT22;11207;59.512;18.050;2022-08-01T08:56:42;24.40;90.90
22081;DHT22;11207;59.512;18.050;2022-08-01T08:59:11;24.50;89.40
22081;DHT22;11207;59.512;18.050;2022-08-01T09:01:38;24.70;89.60
22081;DHT22;11207;59.512;18.050;2022-08-01T09:04:04;24.70;90.00
22081;DHT22;11207;59.512;18.050;2022-08-01T09:06:31;24.90;90.20
22081;DHT22;11207;59.512;18.050;2022-08-01T09:08:57;24.90;89.80
22081;DHT22;11207;59.512;18.050;2022-08-01T09:11:23;24.90;90.40
22081;DHT22;11207;59.512;18.050;2022-08-01T09:14:06;24.80;89.70
22081;DHT22;11207;59.512;18.050;2022-08-01T09:16:32;25.20;87.60
22081;DHT22;11207;59.512;18.050;2022-08-01T09:19:12;25.60;85.00
22081;DHT22;11207;59.512;18.050;2022-08-01T09:21:38;25.80;87.30
22081;DHT22;11207;59.512;18.050;2022-08-01T09:24:12;26.10;85.60
22081;DHT22;11207;59.512;18.050;2022-08-01T09:26:38;26.00;81.00
22081;DHT22;11207;59.512;18.050;2022-08-01T09:29:06;25.70;85.70
22081;DHT22;11207;59.512;18.050;2022-08-01T09:31:41;25.90;83.50
22081;DHT22;11207;59.512;18.050;2022-08-01T09:34:07;26.00;84.00
22081;DHT22;11207;59.512;18.050;2022-08-01T09:37:03;26.20;80.00
22081;DHT22;11207;59.512;18.050;2022-08-01T09:39:38;26.40;81.70
22081;DHT22;11207;59.512;18.050;2022-08-01T09:42:24;26.70;79.40
22081;DHT22;11207;59.512;18.050;2022-08-01T09:44:50;26.60;79.20
22081;DHT22;11207;59.512;18.050;2022-08-01T09:47:18;26.80;76.70
22081;DHT22;11207;59.512;18.050;2022-08-01T09:49:53;26.60;79.00
22081;DHT22;11207;59.512;18.050;2022-08-01T09:52:24;26.50;78.80
22081;DHT22;11207;59.512;18.050;2022-08-01T09:54:58;26.80;77.10
22081;DHT22;11207;59.512;18.050;2022-08-01T09:57:25;26.70;75.20
22081;DHT22;11207;59.512;18.050;2022-08-01T09:59:53;26.50;78.60
22081;DHT22;11207;59.512;18.050;2022-08-01T10:02:46;26.60;75.00
22081;DHT22;11207;59.512;18.050;2022-08-01T10:05:11;25.80;75.20
22081;DHT22;11207;59.512;18.050;2022-08-01T10:08:00;26.00;77.70
22081;DHT22;11207;59.512;18.050;2022-08-01T10:10:27;26.10;78.30
22081;DHT22;11207;59.512;18.050;2022-08-01T10:12:55;26.10;76.00
22081;DHT22;11207;59.512;18.050;2022-08-01T10:15:21;26.20;73.70
22081;DHT22;11207;59.512;18.050;2022-08-01T10:17:54;26.00;74.80
22081;DHT22;11207;59.512;18.050;2022-08-01T10:20:22;26.10;76.00
22081;DHT22;11207;59.512;18.050;2022-08-01T10:22:49;26.10;76.70
22081;DHT22;11207;59.512;18.050;2022-08-01T10:25:18;26.10;74.60
22081;DHT22;11207;59.512;18.050;2022-08-01T10:27:48;26.00;75.60
22081;DHT22;11207;59.512;18.050;2022-08-01T10:30:14;25.80;77.10
22081;DHT22;11207;59.512;18.050;2022-08-01T10:32:41;25.70;77.40
22081;DHT22;11207;59.512;18.050;2022-08-01T10:35:10;25.60;76.60
22081;DHT22;11207;59.512;18.050;2022-08-01T10:37:43;26.00;78.40
22081;DHT22;11207;59.512;18.050;2022-08-01T10:40:12;26.30;77.30
22081;DHT22;11207;59.512;18.050;2022-08-01T10:42:40;26.40;72.70
22081;DHT22;11207;59.512;18.050;2022-08-01T10:45:08;26.40;76.10
22081;DHT22;11207;59.512;18.050;2022-08-01T10:47:51;26.60;73.70
22081;DHT22;11207;59.512;18.050;2022-08-01T10:50:32;26.60;74.10
22081;DHT22;11207;59.512;18.050;2022-08-01T10:53:18;26.50;74.40
22081;DHT22;11207;59.512;18.050;2022-08-01T10:56:05;26.60;74.00
22081;DHT22;11207;59.512;18.050;2022-08-01T10:58:39;26.80;71.90
22081;DHT22;11207;59.512;18.050;2022-08-01T11:03:40;26.20;72.50
22081;DHT22;11207;59.512;18.050;2022-08-01T11:06:07;26.30;71.40
22081;DHT22;11207;59.512;18.050;2022-08-01T11:08:40;26.50;72.50
22081;DHT22;11207;59.512;18.050;2022-08-01T11:11:07;26.70;72.50
22081;DHT22;11207;59.512;18.050;2022-08-01T11:14:02;27.00;70.20
22081;DHT22;11207;59.512;18.050;2022-08-01T11:16:40;27.60;69.40
22081;DHT22;11207;59.512;18.050;2022-08-01T11:19:07;27.80;67.20
22081;DHT22;11207;59.512;18.050;2022-08-01T11:27:22;27.60;67.00
22081;DHT22;11207;59.512;18.050;2022-08-01T11:32:55;27.50;69.50
22081;DHT22;11207;59.512;18.050;2022-08-01T11:35:22;27.50;65.40
22081;DHT22;11207;59.512;18.050;2022-08-01T11:37:50;27.70;66.10
22081;DHT22;11207;59.512;18.050;2022-08-01T11:40:26;27.80;65.50
22081;DHT22;11207;59.512;18.050;2022-08-01T11:45:54;27.50;65.30
22081;DHT22;11207;59.512;18.050;2022-08-01T11:48:25;27.30;66.00
22081;DHT22;11207;59.512;18.050;2022-08-01T11:50:57;27.00;66.60
22081;DHT22;11207;59.512;18.050;2022-08-01T11:53:23;26.50;66.70
22081;DHT22;11207;59.512;18.050;2022-08-01T11:55:53;26.30;67.00
22081;DHT22;11207;59.512;18.050;2022-08-01T11:58:24;25.80;71.10
22081;DHT22;11207;59.512;18.050;2022-08-01T12:00:54;25.70;72.50
22081;DHT22;11207;59.512;18.050;2022-08-01T12:03:31;25.60;72.60
22081;DHT22;11207;59.512;18.050;2022-08-01T12:05:58;25.50;72.30
22081;DHT22;11207;59.512;18.050;2022-08-01T12:08:31;25.70;72.00
22081;DHT22;11207;59.512;18.050;2022-08-01T12:11:00;26.00;71.00
22081;DHT22;11207;59.512;18.050;2022-08-01T12:13:26;25.80;72.00
22081;DHT22;11207;59.512;18.050;2022-08-01T12:15:52;26.00;72.40
22081;DHT22;11207;59.512;18.050;2022-08-01T12:18:17;25.70;72.00
22081;DHT22;11207;59.512;18.050;2022-08-01T12:20:45;25.70;71.20
22081;DHT22;11207;59.512;18.050;2022-08-01T12:23:13;25.60;70.30
22081;DHT22;11207;59.512;18.050;2022-08-01T12:25:40;25.50;71.20
22081;DHT22;11207;59.512;18.050;2022-08-01T12:28:08;25.50;72.20
22081;DHT22;11207;59.512;18.050;2022-08-01T12:30:35;25.40;71.70
22081;DHT22;11207;59.512;18.050;2022-08-01T12:33:06;25.30;72.30
22081;DHT22;11207;59.512;18.050;2022-08-01T12:35:32;25.30;72.60
22081;DHT22;11207;59.512;18.050;2022-08-01T12:38:06;25.00;74.90
22081;DHT22;11207;59.512;18.050;2022-08-01T12:40:35;25.00;74.80
22081;DHT22;11207;59.512;18.050;2022-08-01T12:43:03;24.80;74.40
22081;DHT22;11207;59.512;18.050;2022-08-01T12:45:37;24.90;75.30
22081;DHT22;11207;59.512;18.050;2022-08-01T12:48:15;24.90;73.80
22081;DHT22;11207;59.512;18.050;2022-08-01T12:50:43;25.00;73.20
22081;DHT22;11207;59.512;18.050;2022-08-01T12:53:09;25.10;71.20
22081;DHT22;11207;59.512;18.050;2022-08-01T12:55:49;25.00;71.40
22081;DHT22;11207;59.512;18.050;2022-08-01T12:58:17;25.00;70.90
22081;DHT22;11207;59.512;18.050;2022-08-01T13:00:45;25.00;72.10
22081;DHT22;11207;59.512;18.050;2022-08-01T13:03:19;25.00;72.50
22081;DHT22;11207;59.512;18.050;2022-08-01T13:05:55;24.90;71.90
22081;DHT22;11207;59.512;18.050;2022-08-01T13:08:24;25.00;71.70
22081;DHT22;11207;59.512;18.050;2022-08-01T13:10:55;24.90;72.10
22081;DHT22;11207;59.512;18.050;2022-08-01T13:13:34;25.00;72.50
22081;DHT22;11207;59.512;18.050;2022-08-01T13:16:06;24.90;72.50
22081;DHT22;11207;59.512;18.050;2022-08-01T13:18:33;24.90;72.30
22081;DHT22;11207;59.512;18.050;2022-08-01T13:23:36;24.90;72.90
22081;DHT22;11207;59.512;18.050;2022-08-01T13:26:03;24.90;72.30
22081;DHT22;11207;59.512;18.050;2022-08-01T13:28:29;24.80;71.50
22081;DHT22;11207;59.512;18.050;2022-08-01T13:31:00;24.90;72.00
22081;DHT22;11207;59.512;18.050;2022-08-01T13:33:38;25.00;71.30
22081;DHT22;11207;59.512;18.050;2022-08-01T13:36:06;25.00;69.60
22081;DHT22;11207;59.512;18.050;2022-08-01T13:38:32;24.90;70.40
22081;DHT22;11207;59.512;18.050;2022-08-01T13:41:16;24.90;69.40
22081;DHT22;11207;59.512;18.050;2022-08-01T13:43:41;24.90;71.50
22081;DHT22;11207;59.512;18.050;2022-08-01T13:46:07;25.10;71.30
22081;DHT22;11207;59.512;18.050;2022-08-01T13:48:33;25.00;72.10
22081;DHT22;11207;59.512;18.050;2022-08-01T13:50:59;25.10;73.30
22081;DHT22;11207;59.512;18.050;2022-08-01T13:53:25;25.10;73.60
22081;DHT22;11207;59.512;18.050;2022-08-01T13:55:51;24.80;73.50
22081;DHT22;11207;59.512;18.050;2022-08-01T13:58:16;25.00;74.50
22081;DHT22;11207;59.512;18.050;2022-08-01T14:00:42;24.90;73.30
22081;DHT22;11207;59.512;18.050;2022-08-01T14:03:08;25.00;73.20
22081;DHT22;11207;59.512;18.050;2022-08-01T14:05:36;25.20;72.90
22081;DHT22;11207;59.512;18.050;2022-08-01T14:08:01;24.90;72.50
22081;DHT22;11207;59.512;18.050;2022-08-01T14:10:27;24.70;72.80
22081;DHT22;11207;59.512;18.050;2022-08-01T14:12:54;24.90;72.80
22081;DHT22;11207;59.512;18.050;2022-08-01T14:15:20;25.10;73.20
22081;DHT22;11207;59.512;18.050;2022-08-01T14:17:46;25.20;73.30
22081;DHT22;11207;59.512;18.050;2022-08-01T14:20:11;25.00;74.00
22081;DHT22;11207;59.512;18.050;2022-08-01T14:22:37;24.90;73.70
22081;DHT22;11207;59.512;18.050;2022-08-01T14:25:05;24.80;74.20
22081;DHT22;11207;59.512;18.050;2022-08-01T14:27:30;24.80;70.70
22081;DHT22;11207;59.512;18.050;2022-08-01T14:29:57;24.80;71.30
22081;DHT22;11207;59.512;18.050;2022-08-01T14:32:22;24.80;73.60
22081;DHT22;11207;59.512;18.050;2022-08-01T14:34:48;24.70;74.30
22081;DHT22;11207;59.512;18.050;2022-08-01T14:37:13;24.60;74.10
22081;DHT22;11207;59.512;18.050;2022-08-01T14:39:39;24.40;74.60
22081;DHT22;11207;59.512;18.050;2022-08-01T14:42:05;24.30;75.40
22081;DHT22;11207;59.512;18.050;2022-08-01T14:44:30;24.20;76.20
22081;DHT22;11207;59.512;18.050;2022-08-01T14:46:56;24.20;76.30
22081;DHT22;11207;59.512;18.050;2022-08-01T14:49:21;24.10;76.80
22081;DHT22;11207;59.512;18.050;2022-08-01T14:51:47;24.00;77.80
22081;DHT22;11207;59.512;18.050;2022-08-01T14:54:12;24.10;78.20
22081;DHT22;11207;59.512;18.050;2022-08-01T14:56:38;24.00;78.80
22081;DHT22;11207;59.512;18.050;2022-08-01T14:59:04;24.00;77.60
22081;DHT22;11207;59.512;18.050;2022-08-01T15:01:30;24.10;77.10
22081;DHT22;11207;59.512;18.050;2022-08-01T15:03:56;24.10;77.30
22081;DHT22;11207;59.512;18.050;2022-08-01T15:06:22;24.10;78.00
22081;DHT22;11207;59.512;18.050;2022-08-01T15:08:47;24.10;77.50
22081;DHT22;11207;59.512;18.050;2022-08-01T15:11:13;24.20;77.60
22081;DHT22;11207;59.512;18.050;2022-08-01T15:13:39;24.20;78.00
22081;DHT22;11207;59.512;18.050;2022-08-01T15:16:04;24.30;78.00
22081;DHT22;11207;59.512;18.050;2022-08-01T15:18:30;24.40;78.00
22081;DHT22;11207;59.512;18.050;2022-08-01T15:20:56;24.60;71.60
22081;DHT22;11207;59.512;18.050;2022-08-01T15:23:22;24.60;68.10
22081;DHT22;11207;59.512;18.050;2022-08-01T15:25:48;24.60;67.50
22081;DHT22;11207;59.512;18.050;2022-08-01T15:28:14;24.60;66.80
22081;DHT22;11207;59.512;18.050;2022-08-01T15:30:40;24.70;66.20
22081;DHT22;11207;59.512;18.050;2022-08-01T15:33:06;24.50;66.20
22081;DHT22;11207;59.512;18.050;2022-08-01T15:35:32;24.50;67.30
22081;DHT22;11207;59.512;18.050;2022-08-01T15:37:57;24.30;67.60
22081;DHT22;11207;59.512;18.050;2022-08-01T15:40:23;24.20;68.70
22081;DHT22;11207;59.512;18.050;2022-08-01T15:42:48;24.00;68.10
22081;DHT22;11207;59.512;18.050;2022-08-01T15:45:14;24.00;68.80
22081;DHT22;11207;59.512;18.050;2022-08-01T15:47:43;24.00;69.80